createdAt,value
2022-08-19T00:03:42.219Z,98915.94
2022-08-19T00:08:44.483Z,98923.81
2022-08-19T00:13:47.328Z,98922.66
2022-08-19T00:18:49.424Z,98920.00
2022-08-19T00:23:51.857Z,98933.59
2022-08-19T00:28:53.532Z,98937.66
2022-08-19T00:33:55.430Z,98948.34
2022-08-19T00:38:57.320Z,98952.16
2022-08-19T00:44:15.736Z,98935.16
2022-08-19T00:49:20.598Z,98945.03
2022-08-19T00:54:31.018Z,98936.97
2022-08-19T01:00:00.807Z,98933.84
2022-08-19T01:05:02.664Z,98940.88
2022-08-19T01:10:05.351Z,98943.94
2022-08-19T01:15:10.405Z,98947.44
2022-08-19T01:20:16.516Z,98954.13
2022-08-19T01:25:21.502Z,98957.47
2022-08-19T01:30:31.252Z,98962.50
2022-08-19T01:35:33.490Z,98958.94
2022-08-19T01:40:39.234Z,98951.81
2022-08-19T01:45:41.341Z,98951.31
2022-08-19T01:50:44.757Z,98953.00
2022-08-19T01:55:46.708Z,98962.31
2022-08-19T02:00:48.655Z,98967.72
2022-08-19T02:05:58.585Z,98954.75
2022-08-19T02:11:00.237Z,98926.03
2022-08-19T02:16:01.901Z,98916.19
2022-08-19T02:21:06.173Z,98942.78
2022-08-19T02:26:07.832Z,98960.75
2022-08-19T02:31:15.883Z,98960.47
2022-08-19T02:36:20.802Z,98961.09
2022-08-19T02:41:29.875Z,98957.28
2022-08-19T02:46:33.835Z,98951.06
2022-08-19T02:51:43.152Z,98949.59
2022-08-19T02:56:44.993Z,98954.66
2022-08-19T03:01:46.803Z,98961.41
2022-08-19T03:06:48.639Z,98955.34
2022-08-19T03:11:52.744Z,98949.91
2022-08-19T03:16:54.735Z,98958.84
2022-08-19T03:21:56.651Z,98959.44
2022-08-19T03:26:59.714Z,98969.19
2022-08-19T03:32:04.701Z,98957.78
2022-08-19T03:37:10.807Z,98966.88
2022-08-19T03:42:45.452Z,98970.38
2022-08-19T03:47:35.093Z,98977.53
2022-08-19T03:52:37.010Z,98980.94
2022-08-19T03:57:38.643Z,98983.72
2022-08-19T04:02:40.793Z,98972.91
2022-08-19T04:07:42.979Z,98970.16
2022-08-19T04:12:44.617Z,98968.97
2022-08-19T04:17:46.259Z,98960.41
2022-08-19T04:22:47.972Z,98957.31
2022-08-19T04:27:50.162Z,98955.75
2022-08-19T04:32:51.989Z,98964.75
2022-08-19T04:37:53.792Z,98963.31
2022-08-19T04:42:55.734Z,98979.19
2022-08-19T04:48:26.893Z,98983.66
2022-08-19T04:53:19.950Z,98988.22
2022-08-19T04:58:21.770Z,98982.47
2022-08-19T05:03:26.486Z,98988.59
2022-08-19T05:08:31.801Z,98983.91
2022-08-19T05:13:33.810Z,98982.75
2022-08-19T05:18:54.074Z,98995.41
2022-08-19T05:23:55.846Z,99015.84
2022-08-19T05:28:57.525Z,99013.03
2022-08-19T05:33:59.643Z,99018.34
2022-08-19T05:39:01.617Z,99034.25
2022-08-19T05:44:07.560Z,99041.16
2022-08-19T05:49:09.269Z,99060.66
2022-08-19T05:54:14.340Z,99077.72
2022-08-19T05:59:17.806Z,99086.28
2022-08-19T06:04:21.590Z,99092.03
2022-08-19T06:09:25.564Z,99099.34
2022-08-19T06:14:31.306Z,99120.66
2022-08-19T06:19:35.093Z,99136.56
2022-08-19T06:24:42.973Z,99128.19
2022-08-19T06:29:44.713Z,99137.84
2022-08-19T06:34:47.260Z,99149.53
2022-08-19T06:39:49.603Z,99146.69
2022-08-19T06:44:53.674Z,99169.19
2022-08-19T06:50:05.268Z,99160.94
2022-08-19T06:55:07.804Z,99175.31
2022-08-19T07:00:16.850Z,99186.25
2022-08-19T07:05:18.962Z,99189.06
2022-08-19T07:10:22.150Z,99155.41
2022-08-19T07:15:24.234Z,99166.47
2022-08-19T07:20:28.649Z,99174.88
2022-08-19T07:25:32.358Z,99183.03
2022-08-19T07:30:37.933Z,99185.88
2022-08-19T07:35:39.922Z,99194.03
2022-08-19T07:40:42.268Z,99208.22
2022-08-19T07:45:44.292Z,99196.41
2022-08-19T07:50:46.317Z,99197.44
2022-08-19T07:55:48.692Z,99194.00
2022-08-19T08:00:51.641Z,99200.56
2022-08-19T08:06:12.055Z,99210.19
2022-08-19T08:11:15.516Z,99212.19
2022-08-19T08:16:17.332Z,99215.22
2022-08-19T08:21:19.032Z,99218.91
2022-08-19T08:26:20.680Z,99212.84
2022-08-19T08:31:22.426Z,99227.53
2022-08-19T08:36:25.572Z,99218.84
2022-08-19T08:41:41.636Z,99235.91
2022-08-19T08:46:49.108Z,99239.50
2022-08-19T08:52:08.282Z,99241.75
2022-08-19T08:57:18.819Z,99245.47
2022-08-19T09:02:20.759Z,99249.03
2022-08-19T09:07:35.232Z,99238.81
2022-08-19T09:12:51.065Z,99243.34
2022-08-19T09:17:52.855Z,99253.94
2022-08-19T09:22:54.676Z,99237.28
2022-08-19T09:28:02.757Z,99237.19
2022-08-19T09:33:05.630Z,99217.69
2022-08-19T09:38:07.286Z,99225.34
2022-08-19T09:43:13.417Z,99213.53
2022-08-19T09:48:19.090Z,99214.59
2022-08-19T09:53:25.799Z,99221.34
2022-08-19T09:58:28.920Z,99225.47
2022-08-19T10:03:31.834Z,99227.03
2022-08-19T10:08:37.679Z,99225.50
2022-08-19T10:13:39.729Z,99220.06
2022-08-19T10:18:45.063Z,99224.06
2022-08-19T10:23:53.501Z,99248.75
2022-08-19T10:28:56.162Z,99243.09
2022-08-19T10:34:02.170Z,99254.00
2022-08-19T10:39:08.382Z,99251.75
2022-08-19T10:44:13.941Z,99241.81
2022-08-19T10:49:25.205Z,99236.94
2022-08-19T10:54:47.797Z,99253.25
2022-08-19T10:59:49.501Z,99260.03
2022-08-19T11:04:52.533Z,99269.03
2022-08-19T11:09:55.949Z,99272.88
2022-08-19T11:14:57.646Z,99268.44
2022-08-19T11:20:00.883Z,99285.53
2022-08-19T11:25:03.533Z,99281.16
2022-08-19T11:30:07.151Z,99278.09
2022-08-19T11:35:09.927Z,99286.25
2022-08-19T11:40:12.428Z,99270.41
2022-08-19T11:45:14.996Z,99262.16
2022-08-19T11:50:17.543Z,99273.72
2022-08-19T11:55:20.348Z,99280.56
2022-08-19T12:00:22.627Z,99285.16
2022-08-19T12:05:24.269Z,99288.75
2022-08-19T12:10:26.507Z,99298.53
2022-08-19T12:15:37.331Z,99300.03
2022-08-19T12:20:41.743Z,99306.72
2022-08-19T12:25:51.042Z,99307.78
2022-08-19T12:30:53.006Z,99306.44
2022-08-19T12:35:55.340Z,99317.44
2022-08-19T12:41:00.278Z,99317.16
2022-08-19T12:46:03.577Z,99315.19
2022-08-19T12:51:11.218Z,99315.56
2022-08-19T12:56:15.674Z,99321.47
2022-08-19T13:01:22.039Z,99315.34
2022-08-19T13:06:24.783Z,99314.88
2022-08-19T13:11:26.588Z,99314.66
2022-08-19T13:16:28.919Z,99310.28
2022-08-19T13:21:31.067Z,99315.19
2022-08-19T13:26:32.774Z,99313.47
2022-08-19T13:31:55.389Z,99313.69
2022-08-19T13:36:57.171Z,99317.28
2022-08-19T13:42:01.591Z,99316.66
2022-08-19T13:47:08.037Z,99318.25
2022-08-19T13:52:09.956Z,99319.38
2022-08-19T13:57:11.640Z,99321.38
2022-08-19T14:02:13.285Z,99315.75
2022-08-19T14:07:15.214Z,99322.66
2022-08-19T14:12:28.859Z,99330.34
2022-08-19T14:17:31.136Z,99318.44
2022-08-19T14:22:32.774Z,99313.53
2022-08-19T14:27:35.896Z,99316.78
2022-08-19T14:32:38.029Z,99321.59
2022-08-19T14:37:45.413Z,99320.09
2022-08-19T14:43:02.142Z,99315.44
2022-08-19T14:48:05.596Z,99319.09
2022-08-19T14:53:12.702Z,99331.81
2022-08-19T14:58:28.913Z,99331.94
2022-08-19T15:03:33.016Z,99320.53
2022-08-19T15:08:37.849Z,99321.69
2022-08-19T15:13:40.580Z,99324.44
2022-08-19T15:18:45.397Z,99315.78
2022-08-19T15:23:51.091Z,99329.25
2022-08-19T15:28:53.120Z,99326.84
2022-08-19T15:33:58.521Z,99319.00
2022-08-19T15:39:00.620Z,99317.63
2022-08-19T15:44:11.287Z,99305.34
2022-08-19T15:49:14.611Z,99288.03
2022-08-19T15:54:21.408Z,99282.50
2022-08-19T15:59:46.635Z,99291.22
2022-08-19T16:05:07.008Z,99285.16
2022-08-19T16:10:26.473Z,99295.19
2022-08-19T16:15:31.030Z,99310.13
2022-08-19T16:20:33.073Z,99310.25
2022-08-19T16:25:37.166Z,99317.38
2022-08-19T16:30:40.596Z,99305.72
2022-08-19T16:35:42.266Z,99299.72
2022-08-19T16:40:46.736Z,99289.13
2022-08-19T16:45:53.040Z,99275.19
2022-08-19T16:50:54.686Z,99268.41
2022-08-19T16:55:57.441Z,99276.06
2022-08-19T17:01:04.091Z,99278.19
2022-08-19T17:06:16.018Z,99274.50
2022-08-19T17:11:24.505Z,99272.69
2022-08-19T17:16:29.004Z,99291.84
2022-08-19T17:21:32.782Z,99298.19
2022-08-19T17:26:36.102Z,99295.72
2022-08-19T17:31:38.240Z,99305.78
2022-08-19T17:36:40.070Z,99303.22
2022-08-19T17:41:42.934Z,99294.25
2022-08-19T17:46:46.810Z,99301.09
2022-08-19T17:51:49.617Z,99314.25
2022-08-19T17:56:51.391Z,99336.03
2022-08-19T18:01:54.592Z,99339.66
2022-08-19T18:06:56.807Z,99349.44
2022-08-19T18:11:59.595Z,99365.75
2022-08-19T18:17:09.562Z,99376.47
2022-08-19T18:22:35.525Z,99405.13
2022-08-19T18:27:37.208Z,99411.09
2022-08-19T18:32:39.289Z,99420.50
2022-08-19T18:37:42.220Z,99417.84
2022-08-19T18:43:23.628Z,99402.44
2022-08-19T18:48:44.517Z,99393.16
2022-08-19T18:53:48.585Z,99392.59
2022-08-19T18:58:50.455Z,99399.28
2022-08-19T19:03:54.065Z,99400.22
2022-08-19T19:08:56.967Z,99397.41
2022-08-19T19:14:02.017Z,99400.91
2022-08-19T19:19:07.008Z,99395.22
2022-08-19T19:24:09.076Z,99384.13
2022-08-19T19:29:10.901Z,99397.88
2022-08-19T19:34:29.249Z,99385.19
2022-08-19T19:39:45.357Z,99397.84
2022-08-19T19:44:51.354Z,99397.84
2022-08-19T19:50:13.694Z,99409.03
2022-08-19T19:55:20.707Z,99379.31
2022-08-19T20:00:22.375Z,99383.94
2022-08-19T20:05:24.623Z,99374.53
2022-08-19T20:10:26.827Z,99375.31
2022-08-19T20:15:29.440Z,99398.94
2022-08-19T20:20:31.860Z,99422.22
2022-08-19T20:25:34.356Z,99411.84
2022-08-19T20:30:36.211Z,99413.28
2022-08-19T20:35:40.825Z,99423.03
2022-08-19T20:40:42.835Z,99427.88
2022-08-19T20:45:44.571Z,99419.00
2022-08-19T20:50:47.703Z,99415.59
2022-08-19T20:55:51.182Z,99432.50
2022-08-19T21:00:57.925Z,99422.28
2022-08-19T21:05:59.621Z,99404.47
2022-08-19T21:11:01.825Z,99409.88
2022-08-19T21:16:03.781Z,99409.13
2022-08-19T21:21:10.745Z,99411.91
2022-08-19T21:26:12.397Z,99413.53
2022-08-19T21:31:15.262Z,99425.78
2022-08-19T21:36:17.499Z,99428.13
2022-08-19T21:41:19.148Z,99418.06
2022-08-19T21:46:20.908Z,99423.38
2022-08-19T21:51:22.568Z,99416.31
2022-08-19T21:56:24.478Z,99419.22
2022-08-19T22:01:26.209Z,99403.72
2022-08-19T22:06:27.906Z,99408.22
2022-08-19T22:11:29.637Z,99401.75
2022-08-19T22:16:32.539Z,99409.78
2022-08-19T22:21:40.917Z,99417.66
2022-08-19T22:26:42.889Z,99421.25
2022-08-19T22:31:44.959Z,99421.91
2022-08-19T22:36:46.588Z,99410.81
2022-08-19T22:41:49.442Z,99409.16
2022-08-19T22:46:51.095Z,99415.84
2022-08-19T22:52:11.319Z,99427.25
2022-08-19T22:57:13.705Z,99441.34
2022-08-19T23:02:52.157Z,99423.22
2022-08-19T23:07:54.619Z,99422.38
2022-08-19T23:12:58.801Z,99414.50
2022-08-19T23:18:02.114Z,99415.84
2022-08-19T23:23:08.647Z,99411.63
2022-08-19T23:28:28.813Z,99408.41
2022-08-19T23:33:36.221Z,99399.94
2022-08-19T23:38:52.894Z,99401.31
2022-08-19T23:43:54.962Z,99406.28
2022-08-19T23:48:57.177Z,99401.31
2022-08-19T23:53:58.839Z,99401.88
2022-08-19T23:59:00.490Z,99401.09
